Time;durP1;ratioP1;P1;durP2;ratioP2;P2;SDS_P1;SDS_P2;PMS_P1;PMS_P2;Temp;Humidity;BMP_temperature;BMP_pressure;BME280_temperature;BME280_humidity;BME280_pressure;Samples;Min_cycle;Max_cycle;Signal;HPM_P1;HPM_P2
2022/05/08 00:02:18;;;;;;;8.75;5.15;;;;;;;;;;5051999;28;20029;-71
2022/05/08 00:05:22;;;;;;;9.38;4.88;;;;;;;;;;5051531;28;20045;-71
2022/05/08 00:08:28;;;;;;;10.13;4.45;;;;;;;;;;5051415;28;20045;-71
2022/05/08 00:11:33;;;;;;;6.40;4.40;;;;;;;;;;5051893;28;20060;-72
2022/05/08 00:14:38;;;;;;;10.80;5.65;;;;;;;;;;5050858;28;20032;-71
2022/05/08 00:17:44;;;;;;;10.68;5.00;;;;;;;;;;5051996;28;20049;-72
2022/05/08 00:20:48;;;;;;;10.10;5.28;;;;;;;;;;5051787;28;20037;-72
2022/05/08 00:23:52;;;;;;;9.77;5.07;;;;;;;;;;5050980;28;20040;-71
2022/05/08 00:26:57;;;;;;;8.45;4.93;;;;;;;;;;5050852;28;20029;-72
2022/05/08 00:30:02;;;;;;;13.10;4.75;;;;;;;;;;5050425;28;20386;-72
2022/05/08 00:33:07;;;;;;;11.18;4.88;;;;;;;;;;5051579;28;20393;-72
2022/05/08 00:36:11;;;;;;;8.50;4.47;;;;;;;;;;5050304;28;20053;-72
2022/05/08 00:39:19;;;;;;;13.68;4.90;;;;;;;;;;5050165;28;20389;-71
2022/05/08 00:42:23;;;;;;;13.07;4.90;;;;;;;;;;5049085;28;20045;-71
2022/05/08 00:45:28;;;;;;;13.98;6.15;;;;;;;;;;5049739;28;20045;-71
2022/05/08 00:48:33;;;;;;;13.48;5.57;;;;;;;;;;5049914;28;20048;-71
2022/05/08 00:51:38;;;;;;;10.82;5.90;;;;;;;;;;5050570;28;20048;-71
2022/05/08 00:54:41;;;;;;;10.15;5.10;;;;;;;;;;5050223;28;20038;-71
2022/05/08 00:57:46;;;;;;;11.15;5.32;;;;;;;;;;5050249;28;20033;-71
2022/05/08 01:00:50;;;;;;;8.07;4.88;;;;;;;;;;5050724;28;20041;-71
2022/05/08 01:03:55;;;;;;;8.50;4.65;;;;;;;;;;5050853;28;20045;-71
2022/05/08 01:06:59;;;;;;;8.88;5.65;;;;;;;;;;5049910;28;20374;-71
2022/05/08 01:10:03;;;;;;;8.40;5.18;;;;;;;;;;5049513;28;20516;-71
2022/05/08 01:13:08;;;;;;;8.98;4.85;;;;;;;;;;5050063;28;20025;-71
2022/05/08 01:16:13;;;;;;;14.25;5.60;;;;;;;;;;5049944;28;20049;-72
2022/05/08 01:19:18;;;;;;;10.07;4.60;;;;;;;;;;5050800;28;20044;-72
2022/05/08 01:22:22;;;;;;;6.30;4.00;;;;;;;;;;5050785;28;20044;-73
2022/05/08 01:25:26;;;;;;;6.93;3.90;;;;;;;;;;5050981;28;20041;-71
2022/05/08 01:28:31;;;;;;;11.63;4.63;;;;;;;;;;5050771;28;20037;-72
2022/05/08 01:31:35;;;;;;;10.50;4.68;;;;;;;;;;5050665;28;20049;-73
2022/05/08 01:34:39;;;;;;;12.30;4.78;;;;;;;;;;5050404;28;20397;-72
2022/05/08 01:37:44;;;;;;;9.05;4.95;;;;;;;;;;5052305;28;20044;-72
2022/05/08 01:40:50;;;;;;;14.02;5.22;;;;;;;;;;5054575;28;20037;-71
2022/05/08 01:43:55;;;;;;;11.43;5.93;;;;;;;;;;5054318;28;20044;-71
2022/05/08 01:50:22;;;;;;;10.85;4.97;;;;;;;;;;5054404;28;20513;-72
2022/05/08 01:53:27;;;;;;;11.68;4.80;;;;;;;;;;5053533;28;20029;-72
2022/05/08 01:56:32;;;;;;;8.48;5.25;;;;;;;;;;5055142;28;20064;-72
2022/05/08 01:59:36;;;;;;;9.65;5.22;;;;;;;;;;5054457;28;20041;-72
2022/05/08 02:02:43;;;;;;;12.63;5.47;;;;;;;;;;5054594;28;20041;-71
2022/05/08 02:05:47;;;;;;;9.25;4.43;;;;;;;;;;5054758;28;20060;-72
2022/05/08 02:08:52;;;;;;;9.38;4.78;;;;;;;;;;5054121;28;20041;-72
2022/05/08 02:11:56;;;;;;;15.18;4.65;;;;;;;;;;5054289;28;20473;-71
2022/05/08 02:15:01;;;;;;;8.65;5.47;;;;;;;;;;5054072;28;20362;-72
2022/05/08 02:18:06;;;;;;;12.18;4.65;;;;;;;;;;5054163;28;20033;-72
2022/05/08 02:21:11;;;;;;;9.38;4.80;;;;;;;;;;5053251;28;20476;-73
2022/05/08 02:24:15;;;;;;;10.55;4.43;;;;;;;;;;5053990;28;20041;-73
2022/05/08 02:27:20;;;;;;;12.65;4.88;;;;;;;;;;5054004;28;20032;-72
2022/05/08 02:30:25;;;;;;;12.30;4.38;;;;;;;;;;5053757;28;20049;-73
2022/05/08 02:33:29;;;;;;;9.02;4.55;;;;;;;;;;5053637;28;20048;-71
2022/05/08 02:36:34;;;;;;;9.32;4.25;;;;;;;;;;5053419;28;20405;-72
2022/05/08 02:39:39;;;;;;;10.60;4.63;;;;;;;;;;5053743;28;20370;-72
2022/05/08 02:42:43;;;;;;;5.63;3.97;;;;;;;;;;5053608;28;20045;-72
2022/05/08 02:45:48;;;;;;;6.63;3.75;;;;;;;;;;5053380;28;20041;-73
2022/05/08 02:48:52;;;;;;;9.68;3.85;;;;;;;;;;5052826;28;20037;-72
2022/05/08 02:51:57;;;;;;;6.40;3.53;;;;;;;;;;5052640;28;20053;-73
2022/05/08 02:58:32;;;;;;;6.75;3.58;;;;;;;;;;5052934;28;20033;-73
2022/05/08 02:58:34;;;;;;;5.47;3.42;;;;;;;;;;5053449;28;20045;-73
2022/05/08 03:01:39;;;;;;;7.35;3.33;;;;;;;;;;5053341;28;20036;-72
2022/05/08 03:04:46;;;;;;;6.30;3.63;;;;;;;;;;5053098;28;20037;-73
2022/05/08 03:07:50;;;;;;;12.80;4.07;;;;;;;;;;5052117;28;20366;-73
2022/05/08 03:14:17;;;;;;;4.93;2.88;;;;;;;;;;5053070;28;20136;-73
2022/05/08 03:17:22;;;;;;;7.43;3.53;;;;;;;;;;5053054;28;20045;-73
2022/05/08 03:20:26;;;;;;;6.57;3.40;;;;;;;;;;5053043;28;20041;-73
2022/05/08 03:23:31;;;;;;;9.65;3.55;;;;;;;;;;5052958;28;20036;-73
2022/05/08 03:26:36;;;;;;;6.13;3.33;;;;;;;;;;5052720;28;20033;-72
2022/05/08 03:29:40;;;;;;;10.93;3.40;;;;;;;;;;5052737;28;20414;-72
2022/05/08 03:32:45;;;;;;;8.77;3.30;;;;;;;;;;5051955;28;20041;-72
2022/05/08 03:35:49;;;;;;;10.75;4.47;;;;;;;;;;5052712;28;20045;-72
2022/05/08 03:38:53;;;;;;;7.35;3.45;;;;;;;;;;5052633;28;20041;-73
2022/05/08 03:41:58;;;;;;;4.38;2.80;;;;;;;;;;5052321;28;20045;-73
2022/05/08 03:45:02;;;;;;;9.55;3.85;;;;;;;;;;5052464;28;20048;-71
2022/05/08 03:48:07;;;;;;;6.65;3.25;;;;;;;;;;5051624;28;20033;-71
2022/05/08 03:51:11;;;;;;;8.40;3.05;;;;;;;;;;5051913;28;20048;-71
2022/05/08 03:54:18;;;;;;;6.68;2.80;;;;;;;;;;5051506;28;20033;-71
2022/05/08 03:57:23;;;;;;;5.20;2.70;;;;;;;;;;5052274;28;20044;-71
2022/05/08 04:00:28;;;;;;;6.53;2.85;;;;;;;;;;5051269;28;20037;-71
2022/05/08 04:03:32;;;;;;;5.20;2.53;;;;;;;;;;5052014;28;20045;-71
2022/05/08 04:06:36;;;;;;;4.95;2.72;;;;;;;;;;5052137;28;20037;-73
2022/05/08 04:09:41;;;;;;;6.90;2.13;;;;;;;;;;5051428;28;20044;-73
2022/05/08 04:12:47;;;;;;;5.55;2.40;;;;;;;;;;5051267;28;20045;-72
2022/05/08 04:19:16;;;;;;;8.85;2.60;;;;;;;;;;5051958;28;20033;-73
2022/05/08 04:25:43;;;;;;;8.18;2.88;;;;;;;;;;5052039;28;20088;-71
2022/05/08 04:28:48;;;;;;;6.65;2.72;;;;;;;;;;5051538;28;20037;-71
2022/05/08 04:31:52;;;;;;;7.72;2.78;;;;;;;;;;5051531;28;20041;-72
2022/05/08 04:34:58;;;;;;;6.72;2.90;;;;;;;;;;5051995;28;20037;-72
2022/05/08 04:38:02;;;;;;;12.90;2.78;;;;;;;;;;5051729;28;20041;-72
2022/05/08 04:41:06;;;;;;;8.55;2.72;;;;;;;;;;5051414;28;20040;-72
2022/05/08 04:44:12;;;;;;;8.77;2.75;;;;;;;;;;5051340;28;20224;-71
2022/05/08 04:47:16;;;;;;;14.25;2.70;;;;;;;;;;5051426;28;20033;-72
2022/05/08 04:50:20;;;;;;;7.80;2.55;;;;;;;;;;5050232;28;20052;-71
2022/05/08 04:53:25;;;;;;;4.88;2.35;;;;;;;;;;5051020;28;20029;-72
2022/05/08 04:56:29;;;;;;;6.93;2.60;;;;;;;;;;5051268;28;20045;-71
2022/05/08 04:59:34;;;;;;;8.75;2.83;;;;;;;;;;5051242;28;20033;-71
2022/05/08 05:02:38;;;;;;;7.80;3.33;;;;;;;;;;5051117;28;20045;-71
2022/05/08 05:05:42;;;;;;;7.55;2.63;;;;;;;;;;5051088;28;20129;-71
2022/05/08 05:08:46;;;;;;;6.28;2.28;;;;;;;;;;5050621;28;20052;-71
2022/05/08 05:11:51;;;;;;;11.63;3.00;;;;;;;;;;5050661;28;20071;-71
2022/05/08 05:14:55;;;;;;;11.10;2.88;;;;;;;;;;5050808;28;20037;-71
2022/05/08 05:18:01;;;;;;;4.70;2.30;;;;;;;;;;5051162;28;20041;-71
2022/05/08 05:21:05;;;;;;;7.60;2.72;;;;;;;;;;5050831;28;20025;-71
2022/05/08 05:24:10;;;;;;;8.00;2.40;;;;;;;;;;5049373;28;20033;-71
2022/05/08 05:27:14;;;;;;;7.03;2.58;;;;;;;;;;5050589;28;20029;-71
2022/05/08 05:30:19;;;;;;;6.32;2.47;;;;;;;;;;5050701;28;20402;-71
2022/05/08 05:33:23;;;;;;;5.28;2.10;;;;;;;;;;5050589;28;20049;-71
2022/05/08 05:36:27;;;;;;;5.63;2.75;;;;;;;;;;5050767;28;20045;-71
2022/05/08 05:39:31;;;;;;;4.53;2.67;;;;;;;;;;5050035;28;20037;-74
2022/05/08 05:42:36;;;;;;;7.25;2.45;;;;;;;;;;5050867;28;20041;-71
2022/05/08 05:45:40;;;;;;;5.80;2.22;;;;;;;;;;5038225;28;20374;-73
2022/05/08 05:48:45;;;;;;;5.28;2.63;;;;;;;;;;5050760;28;20033;-71
2022/05/08 05:51:49;;;;;;;5.47;2.58;;;;;;;;;;5049634;28;20049;-71
2022/05/08 05:54:53;;;;;;;6.40;2.95;;;;;;;;;;5038234;28;20045;-71
2022/05/08 05:57:57;;;;;;;4.70;1.60;;;;;;;;;;5050589;28;20037;-71
2022/05/08 06:01:02;;;;;;;2.30;1.60;;;;;;;;;;5049786;28;20045;-71
2022/05/08 06:04:07;;;;;;;6.20;1.48;;;;;;;;;;5050454;28;20041;-71
2022/05/08 06:07:11;;;;;;;5.68;1.30;;;;;;;;;;5049603;28;20041;-72
2022/05/08 06:10:16;;;;;;;6.35;1.40;;;;;;;;;;5038250;28;20041;-72
2022/05/08 06:13:24;;;;;;;2.30;1.27;;;;;;;;;;5050636;28;20045;-72
2022/05/08 06:16:31;;;;;;;3.80;1.20;;;;;;;;;;5051343;28;20045;-72
2022/05/08 06:19:36;;;;;;;4.40;1.30;;;;;;;;;;5051263;28;20033;-72
2022/05/08 06:22:40;;;;;;;2.47;1.27;;;;;;;;;;5052186;28;20032;-72
2022/05/08 06:25:44;;;;;;;4.40;1.25;;;;;;;;;;5054174;28;20041;-72
2022/05/08 06:28:49;;;;;;;7.25;1.70;;;;;;;;;;5053321;28;20048;-73
2022/05/08 06:31:54;;;;;;;4.68;1.65;;;;;;;;;;5053732;28;20386;-71
2022/05/08 06:34:58;;;;;;;8.43;1.73;;;;;;;;;;5053721;28;20037;-72
2022/05/08 06:38:02;;;;;;;4.60;1.30;;;;;;;;;;5053646;28;20044;-72
2022/05/08 06:41:07;;;;;;;3.47;1.20;;;;;;;;;;5053969;28;20374;-72
2022/05/08 06:44:13;;;;;;;3.72;1.60;;;;;;;;;;5055579;28;20033;-72
2022/05/08 06:47:17;;;;;;;5.93;1.30;;;;;;;;;;5053931;28;20045;-70
2022/05/08 06:50:22;;;;;;;3.45;1.15;;;;;;;;;;5053668;28;20037;-70
2022/05/08 06:53:26;;;;;;;3.38;1.10;;;;;;;;;;5052750;28;20041;-72
2022/05/08 06:56:35;;;;;;;3.78;1.33;;;;;;;;;;5052522;28;20037;-74
2022/05/08 07:03:05;;;;;;;3.42;1.15;;;;;;;;;;5052335;28;20045;-75
2022/05/08 07:06:10;;;;;;;4.32;1.30;;;;;;;;;;5053270;28;20045;-75
2022/05/08 07:09:14;;;;;;;13.15;2.67;;;;;;;;;;5052718;28;20045;-73
2022/05/08 07:12:19;;;;;;;4.15;0.90;;;;;;;;;;5053100;28;20378;-76
2022/05/08 07:15:23;;;;;;;2.70;0.88;;;;;;;;;;5053111;28;20033;-75
2022/05/08 07:18:29;;;;;;;3.55;1.52;;;;;;;;;;5053138;28;20473;-73
2022/05/08 07:21:33;;;;;;;6.20;1.40;;;;;;;;;;5052101;28;20045;-74
2022/05/08 07:24:40;;;;;;;6.28;1.23;;;;;;;;;;5051784;28;20037;-72
2022/05/08 07:27:45;;;;;;;3.42;1.08;;;;;;;;;;5052897;28;20029;-71
2022/05/08 07:30:50;;;;;;;1.65;0.80;;;;;;;;;;5052414;28;20045;-74
2022/05/08 07:37:17;;;;;;;5.22;1.60;;;;;;;;;;5052454;28;20041;-71
2022/05/08 07:40:22;;;;;;;10.68;1.67;;;;;;;;;;5052091;28;20041;-76
2022/05/08 07:43:27;;;;;;;7.82;2.15;;;;;;;;;;5039856;28;20041;-74
2022/05/08 07:46:31;;;;;;;11.38;2.03;;;;;;;;;;5052502;28;20041;-74
2022/05/08 07:49:35;;;;;;;9.07;1.95;;;;;;;;;;5052339;28;20040;-73
2022/05/08 07:52:40;;;;;;;7.10;1.90;;;;;;;;;;5052428;28;20045;-73
2022/05/08 07:55:51;;;;;;;13.48;2.08;;;;;;;;;;5052130;28;20370;-73
2022/05/08 07:58:56;;;;;;;12.30;2.20;;;;;;;;;;5052253;28;20040;-73
2022/05/08 08:02:00;;;;;;;10.25;2.95;;;;;;;;;;5051978;28;20046;-76
2022/05/08 08:05:04;;;;;;;9.40;2.13;;;;;;;;;;5051216;28;20036;-75
2022/05/08 08:08:08;;;;;;;10.57;2.33;;;;;;;;;;5051025;28;20044;-74
2022/05/08 08:11:13;;;;;;;11.82;2.83;;;;;;;;;;5051656;28;20055;-74
2022/05/08 08:14:17;;;;;;;14.90;3.22;;;;;;;;;;5050780;28;20044;-75
2022/05/08 08:17:22;;;;;;;13.55;2.42;;;;;;;;;;5051601;28;20041;-73
2022/05/08 08:20:26;;;;;;;9.63;3.08;;;;;;;;;;5051538;28;20037;-73
2022/05/08 08:23:30;;;;;;;10.88;2.38;;;;;;;;;;5050479;28;20173;-74
2022/05/08 08:26:36;;;;;;;11.35;2.05;;;;;;;;;;5051739;28;20368;-73
2022/05/08 08:29:40;;;;;;;8.55;2.53;;;;;;;;;;5038776;28;20417;-74
2022/05/08 08:32:45;;;;;;;10.15;2.05;;;;;;;;;;5051472;28;20049;-73
2022/05/08 08:35:49;;;;;;;11.20;3.13;;;;;;;;;;5051501;28;20040;-74
2022/05/08 08:38:54;;;;;;;9.93;2.20;;;;;;;;;;5051177;28;20040;-74
2022/05/08 08:41:59;;;;;;;9.88;2.00;;;;;;;;;;5051405;28;20477;-74
2022/05/08 08:48:28;;;;;;;8.75;2.00;;;;;;;;;;5050587;28;20389;-73
2022/05/08 08:51:33;;;;;;;10.02;2.15;;;;;;;;;;5050776;28;20048;-74
2022/05/08 08:54:37;;;;;;;9.30;2.15;;;;;;;;;;5050077;28;20043;-73
2022/05/08 08:57:42;;;;;;;9.63;2.40;;;;;;;;;;5051229;28;20484;-74
2022/05/08 09:00:46;;;;;;;9.55;2.45;;;;;;;;;;5051059;28;20037;-73
2022/05/08 09:03:56;;;;;;;11.82;3.00;;;;;;;;;;5049833;28;20037;-74
2022/05/08 09:07:02;;;;;;;;;;;;;;;;;;5051380;28;20140;-75
2022/05/08 09:10:09;;;;;;;11.38;2.97;;;;;;;;;;5050574;28;19924;-73
2022/05/08 09:13:14;;;;;;;14.02;4.95;;;;;;;;;;5050742;28;20389;-73
2022/05/08 09:16:18;;;;;;;13.68;3.92;;;;;;;;;;5050368;28;20044;-75
2022/05/08 09:19:37;;;;;;;8.20;2.25;;;;;;;;;;5050889;28;20041;-74
2022/05/08 09:22:42;;;;;;;7.68;2.60;;;;;;;;;;5049817;28;20041;-76
2022/05/08 09:25:52;;;;;;;8.98;1.92;;;;;;;;;;5051117;28;20044;-75
2022/05/08 09:28:57;;;;;;;8.80;2.20;;;;;;;;;;5049917;28;20036;-77
2022/05/08 09:32:01;;;;;;;13.77;2.20;;;;;;;;;;5049699;28;20037;-74
2022/05/08 09:35:06;;;;;;;9.15;2.28;;;;;;;;;;5049853;28;20366;-74
2022/05/08 09:38:10;;;;;;;9.85;2.15;;;;;;;;;;5050195;28;20041;-74
2022/05/08 09:41:20;;;;;;;7.65;1.88;;;;;;;;;;5050718;28;20037;-73
2022/05/08 09:44:24;;;;;;;10.15;2.20;;;;;;;;;;5049795;28;20480;-72
2022/05/08 09:47:44;;;;;;;8.45;2.53;;;;;;;;;;5050691;28;20036;-72
2022/05/08 09:50:48;;;;;;;9.85;2.20;;;;;;;;;;5027139;28;20032;-72
2022/05/08 09:53:54;;;;;;;6.70;1.95;;;;;;;;;;5050297;28;20033;-76
2022/05/08 09:56:59;;;;;;;10.77;2.70;;;;;;;;;;5050593;28;20033;-72
2022/05/08 10:00:04;;;;;;;8.43;2.20;;;;;;;;;;5052682;28;20037;-72
2022/05/08 10:03:16;;;;;;;9.18;2.67;;;;;;;;;;5053969;28;20037;-72
2022/05/08 10:06:21;;;;;;;12.73;2.83;;;;;;;;;;5054354;28;20037;-74
2022/05/08 10:16:31;;;;;;;6.60;2.38;;;;;;;;;;5052864;28;20040;-76
2022/05/08 10:19:34;;;;;;;12.32;2.53;;;;;;;;;;5053091;28;20037;-73
2022/05/08 10:22:47;;;;;;;8.75;2.22;;;;;;;;;;5053800;28;20051;-73
2022/05/08 10:26:10;;;;;;;10.60;2.60;;;;;;;;;;5052986;28;20505;-73
2022/05/08 10:29:14;;;;;;;10.13;2.20;;;;;;;;;;5053936;28;20041;-73
2022/05/08 10:32:34;;;;;;;10.27;2.33;;;;;;;;;;5053390;28;20047;-73
2022/05/08 10:35:38;;;;;;;12.05;2.30;;;;;;;;;;5053455;28;20509;-72
2022/05/08 10:38:43;;;;;;;12.48;2.60;;;;;;;;;;5053908;28;20053;-73
2022/05/08 10:41:49;;;;;;;17.33;2.78;;;;;;;;;;5053330;28;20037;-73
2022/05/08 10:44:54;;;;;;;11.63;1.98;;;;;;;;;;5053733;28;20045;-76
2022/05/08 10:48:07;;;;;;;7.07;1.92;;;;;;;;;;5053453;28;20103;-77
2022/05/08 10:51:11;;;;;;;10.38;2.20;;;;;;;;;;5053681;28;20052;-74
2022/05/08 10:54:15;;;;;;;12.93;2.75;;;;;;;;;;5053377;28;20037;-75
2022/05/08 10:57:28;;;;;;;10.88;2.30;;;;;;;;;;5053159;28;20503;-77
2022/05/08 11:00:32;;;;;;;6.18;2.00;;;;;;;;;;5053319;28;20052;-85
2022/05/08 11:03:37;;;;;;;14.38;2.53;;;;;;;;;;5053478;28;20029;-74
2022/05/08 11:06:42;;;;;;;7.35;1.80;;;;;;;;;;5053134;28;20361;-77
2022/05/08 11:09:47;;;;;;;11.38;1.98;;;;;;;;;;5051379;28;20036;-75
2022/05/08 11:13:04;;;;;;;8.45;1.95;;;;;;;;;;5053093;28;20056;-76
2022/05/08 11:16:09;;;;;;;8.43;2.63;;;;;;;;;;5052927;28;20037;-73
2022/05/08 11:19:14;;;;;;;14.63;3.45;;;;;;;;;;5051765;28;20037;-74
2022/05/08 11:22:18;;;;;;;9.43;2.80;;;;;;;;;;5052391;28;20044;-74
2022/05/08 11:25:22;;;;;;;16.40;2.88;;;;;;;;;;5052514;28;20044;-74
2022/05/08 11:28:28;;;;;;;10.00;3.17;;;;;;;;;;5051658;28;20049;-73
2022/05/08 11:31:33;;;;;;;14.32;3.83;;;;;;;;;;5052470;28;20049;-73
2022/05/08 11:38:06;;;;;;;12.13;2.78;;;;;;;;;;5051514;28;20033;-75
2022/05/08 11:41:33;;;;;;;9.75;2.60;;;;;;;;;;5052753;28;20040;-72
2022/05/08 11:44:37;;;;;;;8.82;2.65;;;;;;;;;;5051580;28;20049;-72
2022/05/08 11:47:41;;;;;;;9.88;2.10;;;;;;;;;;5052377;28;20037;-74
2022/05/08 11:50:53;;;;;;;11.10;2.67;;;;;;;;;;5051530;28;20451;-73
2022/05/08 11:53:57;;;;;;;8.27;2.30;;;;;;;;;;5052107;28;20045;-73
2022/05/08 11:57:13;;;;;;;9.68;2.30;;;;;;;;;;5051045;28;20477;-72
2022/05/08 12:00:18;;;;;;;6.32;2.20;;;;;;;;;;5052212;28;20037;-72
2022/05/08 12:03:28;;;;;;;8.75;2.13;;;;;;;;;;5052044;28;20041;-73
2022/05/08 12:06:33;;;;;;;7.25;2.40;;;;;;;;;;5052249;28;20040;-77
2022/05/08 12:09:51;;;;;;;9.35;3.30;;;;;;;;;;5051762;28;20049;-77
2022/05/08 12:13:06;;;;;;;14.05;2.20;;;;;;;;;;5051157;28;20048;-73
2022/05/08 12:16:16;;;;;;;13.07;3.90;;;;;;;;;;5050961;28;20041;-77
2022/05/08 12:19:20;;;;;;;13.90;7.47;;;;;;;;;;5051879;28;20048;-76
2022/05/08 12:22:26;;;;;;;9.15;3.13;;;;;;;;;;5038674;28;20054;-74
2022/05/08 12:25:30;;;;;;;9.18;3.30;;;;;;;;;;5050958;28;20049;-74
2022/05/08 12:28:44;;;;;;;4.78;2.35;;;;;;;;;;5051645;28;20128;-76
2022/05/08 12:31:52;;;;;;;12.90;2.85;;;;;;;;;;5050710;28;20485;-76
2022/05/08 12:34:57;;;;;;;10.88;3.17;;;;;;;;;;5054216;28;20393;-79
2022/05/08 12:38:02;;;;;;;9.70;2.60;;;;;;;;;;5051664;28;20056;-75
2022/05/08 12:41:07;;;;;;;11.27;2.83;;;;;;;;;;5051469;28;20049;-77
2022/05/08 12:44:11;;;;;;;11.00;3.10;;;;;;;;;;5051564;28;20036;-72
2022/05/08 12:47:15;;;;;;;19.70;6.97;;;;;;;;;;5051141;28;20032;-72
2022/05/08 12:50:19;;;;;;;13.20;3.88;;;;;;;;;;5051087;28;20055;-71
2022/05/08 12:53:24;;;;;;;16.75;4.97;;;;;;;;;;5051172;28;20485;-71
2022/05/08 12:56:28;;;;;;;15.65;3.50;;;;;;;;;;5050986;28;20033;-71
2022/05/08 12:59:49;;;;;;;13.77;3.70;;;;;;;;;;5050324;28;20037;-70
2022/05/08 13:02:54;;;;;;;8.98;2.92;;;;;;;;;;5051171;28;20523;-70
2022/05/08 13:05:58;;;;;;;11.60;3.00;;;;;;;;;;5051180;28;20041;-72
2022/05/08 13:09:03;;;;;;;5.78;2.67;;;;;;;;;;5049948;28;20249;-73
2022/05/08 13:12:08;;;;;;;5.82;2.83;;;;;;;;;;5049882;28;20045;-72
2022/05/08 13:15:12;;;;;;;7.20;3.25;;;;;;;;;;5050320;28;20033;-73
2022/05/08 13:18:16;;;;;;;9.95;3.22;;;;;;;;;;5051004;28;20045;-73
2022/05/08 13:21:21;;;;;;;9.98;3.55;;;;;;;;;;5050974;28;20037;-73
2022/05/08 13:24:25;;;;;;;8.85;2.97;;;;;;;;;;5050941;28;20040;-72
2022/05/08 13:27:30;;;;;;;21.95;5.60;;;;;;;;;;5050569;28;20029;-72
2022/05/08 13:30:34;;;;;;;8.27;3.80;;;;;;;;;;5050614;28;20045;-73
2022/05/08 13:33:39;;;;;;;10.93;2.78;;;;;;;;;;5052215;28;20041;-73
2022/05/08 13:36:45;;;;;;;6.93;2.75;;;;;;;;;;5055131;28;20044;-73
2022/05/08 13:39:49;;;;;;;9.60;2.92;;;;;;;;;;5054708;28;20041;-72
2022/05/08 13:42:55;;;;;;;9.18;4.03;;;;;;;;;;5054939;28;20041;-74
2022/05/08 13:46:00;;;;;;;8.07;3.67;;;;;;;;;;5054897;28;20045;-74
2022/05/08 13:49:05;;;;;;;12.50;3.22;;;;;;;;;;5054634;28;20041;-73
2022/05/08 13:52:10;;;;;;;7.32;3.40;;;;;;;;;;5054244;28;20045;-72
2022/05/08 13:55:16;;;;;;;9.27;3.17;;;;;;;;;;5054729;28;20029;-72
2022/05/08 13:58:20;;;;;;;9.32;2.95;;;;;;;;;;5054716;28;20041;-72
2022/05/08 14:01:25;;;;;;;7.38;2.90;;;;;;;;;;5042246;28;20033;-71
2022/05/08 14:04:29;;;;;;;8.98;2.78;;;;;;;;;;5054440;28;20045;-71
2022/05/08 14:07:35;;;;;;;7.35;2.60;;;;;;;;;;5054283;28;20036;-72
2022/05/08 14:10:43;;;;;;;8.35;3.00;;;;;;;;;;5054234;28;20386;-72
2022/05/08 14:13:47;;;;;;;6.72;2.17;;;;;;;;;;5054067;28;20044;-71
2022/05/08 14:16:52;;;;;;;4.45;2.40;;;;;;;;;;5054143;28;20033;-71
2022/05/08 14:19:56;;;;;;;8.88;2.50;;;;;;;;;;5053297;28;20040;-71
2022/05/08 14:23:00;;;;;;;6.63;2.40;;;;;;;;;;5053933;28;20048;-71
2022/05/08 14:26:04;;;;;;;5.53;1.98;;;;;;;;;;5053104;28;20037;-71
2022/05/08 14:29:08;;;;;;;5.22;2.55;;;;;;;;;;5052032;28;20252;-71
2022/05/08 14:38:59;;;;;;;5.20;2.17;;;;;;;;;;5051810;28;20516;-71
2022/05/08 14:42:04;;;;;;;3.55;2.10;;;;;;;;;;5051461;28;20036;-71
2022/05/08 14:45:08;;;;;;;4.93;1.80;;;;;;;;;;5052771;28;20040;-72
2022/05/08 14:48:12;;;;;;;6.82;2.53;;;;;;;;;;5053416;28;20029;-71
2022/05/08 14:51:19;;;;;;;5.65;2.08;;;;;;;;;;5053896;28;20037;-70
2022/05/08 14:54:23;;;;;;;9.45;2.20;;;;;;;;;;5052775;28;20485;-71
2022/05/08 14:57:27;;;;;;;7.80;2.58;;;;;;;;;;5053473;28;20041;-70
2022/05/08 15:00:32;;;;;;;6.22;1.90;;;;;;;;;;5053214;28;20041;-72
2022/05/08 15:03:36;;;;;;;4.35;1.60;;;;;;;;;;5052926;28;20041;-72
2022/05/08 15:06:41;;;;;;;6.03;1.77;;;;;;;;;;5051949;28;20477;-72
2022/05/08 15:09:45;;;;;;;4.60;1.92;;;;;;;;;;5052107;28;20045;-71
2022/05/08 15:12:50;;;;;;;4.97;1.85;;;;;;;;;;5052654;28;20049;-72
2022/05/08 15:15:57;;;;;;;4.22;1.30;;;;;;;;;;5053005;28;20029;-71
2022/05/08 15:19:03;;;;;;;5.82;1.75;;;;;;;;;;5052032;28;20041;-71
2022/05/08 15:22:07;;;;;;;3.97;1.55;;;;;;;;;;5052825;28;20363;-73
2022/05/08 15:25:11;;;;;;;2.13;1.30;;;;;;;;;;5052434;28;20378;-71
2022/05/08 15:28:16;;;;;;;4.05;1.23;;;;;;;;;;5052843;28;20044;-71
2022/05/08 15:31:20;;;;;;;5.90;1.73;;;;;;;;;;5052317;28;20566;-72
2022/05/08 15:34:25;;;;;;;5.32;1.60;;;;;;;;;;5052487;28;20045;-74
2022/05/08 15:37:32;;;;;;;5.10;1.70;;;;;;;;;;5051884;28;20041;-72
2022/05/08 15:40:37;;;;;;;3.83;1.98;;;;;;;;;;5051521;28;20160;-73
2022/05/08 15:43:41;;;;;;;11.35;3.25;;;;;;;;;;5051407;28;20037;-73
2022/05/08 15:46:46;;;;;;;5.20;1.75;;;;;;;;;;5051599;28;20045;-73
2022/05/08 15:49:50;;;;;;;6.15;2.22;;;;;;;;;;5052417;28;20041;-73
2022/05/08 15:52:55;;;;;;;4.88;1.90;;;;;;;;;;5051785;28;20045;-73
2022/05/08 15:55:59;;;;;;;6.55;2.17;;;;;;;;;;5052065;28;20565;-72
2022/05/08 15:59:04;;;;;;;5.47;1.90;;;;;;;;;;5051162;28;20143;-73
2022/05/08 16:02:08;;;;;;;4.28;2.30;;;;;;;;;;5051945;28;20481;-71
2022/05/08 16:05:14;;;;;;;3.50;1.70;;;;;;;;;;5051131;28;20037;-73
2022/05/08 16:08:18;;;;;;;3.53;1.70;;;;;;;;;;5051076;28;20041;-72
2022/05/08 16:11:23;;;;;;;3.40;1.77;;;;;;;;;;5050884;28;20045;-73
2022/05/08 16:24:35;;;;;;;5.07;2.05;;;;;;;;;;5051039;28;20033;-74
2022/05/08 16:27:39;;;;;;;8.05;2.33;;;;;;;;;;5051428;28;20029;-73
2022/05/08 16:30:44;;;;;;;5.63;2.03;;;;;;;;;;5051644;28;20037;-73
2022/05/08 16:34:10;;;;;;;7.75;2.53;;;;;;;;;;5050822;28;20144;-74
2022/05/08 16:37:15;;;;;;;5.13;2.20;;;;;;;;;;5051377;28;20029;-74
2022/05/08 16:40:19;;;;;;;5.90;2.33;;;;;;;;;;5050694;28;20045;-74
2022/05/08 16:43:24;;;;;;;4.68;2.15;;;;;;;;;;5050251;28;20569;-74
2022/05/08 16:46:28;;;;;;;5.75;2.13;;;;;;;;;;5050297;28;20044;-74
2022/05/08 16:49:32;;;;;;;5.47;2.30;;;;;;;;;;5051318;28;20366;-74
2022/05/08 16:52:37;;;;;;;4.28;2.00;;;;;;;;;;5051014;28;20053;-75
2022/05/08 16:55:41;;;;;;;6.78;2.25;;;;;;;;;;5050316;28;20033;-74
2022/05/08 16:58:46;;;;;;;5.25;2.13;;;;;;;;;;5051194;28;20041;-75
2022/05/08 17:01:54;;;;;;;6.07;2.20;;;;;;;;;;5050301;28;20040;-74
2022/05/08 17:04:58;;;;;;;5.70;2.65;;;;;;;;;;5050979;28;20374;-74
2022/05/08 17:08:03;;;;;;;4.20;2.30;;;;;;;;;;5050139;28;20037;-75
2022/05/08 17:11:07;;;;;;;6.00;2.55;;;;;;;;;;5050648;28;20037;-74
2022/05/08 17:14:12;;;;;;;6.10;2.60;;;;;;;;;;5050412;28;20037;-74
2022/05/08 17:17:19;;;;;;;5.85;3.45;;;;;;;;;;5051021;28;20033;-75
2022/05/08 17:20:23;;;;;;;9.82;3.70;;;;;;;;;;5050921;28;20045;-74
2022/05/08 17:23:28;;;;;;;10.50;4.10;;;;;;;;;;5050872;28;20421;-75
2022/05/08 17:28:45;;;;;;;7.05;3.58;;;;;;;;;;5051087;28;20052;-75
2022/05/08 17:29:56;;;;;;;8.05;3.20;;;;;;;;;;5050883;28;20053;-75
2022/05/08 17:33:01;;;;;;;8.75;3.42;;;;;;;;;;5050575;28;20052;-73
2022/05/08 17:36:06;;;;;;;12.20;3.25;;;;;;;;;;5050851;28;20029;-73
2022/05/08 17:39:10;;;;;;;11.80;3.60;;;;;;;;;;5049861;28;20374;-73
2022/05/08 17:42:14;;;;;;;8.23;3.00;;;;;;;;;;5050286;28;20485;-72
2022/05/08 17:45:20;;;;;;;10.00;3.80;;;;;;;;;;5050713;28;20049;-75
2022/05/08 17:48:24;;;;;;;7.50;3.17;;;;;;;;;;5050745;28;20498;-75
2022/05/08 17:51:29;;;;;;;6.45;2.80;;;;;;;;;;5050633;28;20041;-76
2022/05/08 17:54:34;;;;;;;5.53;2.67;;;;;;;;;;5049799;28;20457;-76
2022/05/08 17:57:38;;;;;;;9.15;3.20;;;;;;;;;;5050466;28;20049;-75
2022/05/08 18:00:43;;;;;;;7.72;3.58;;;;;;;;;;5049632;28;20044;-77
2022/05/08 18:07:10;;;;;;;8.43;2.88;;;;;;;;;;5050372;28;20048;-73
2022/05/08 18:10:14;;;;;;;6.70;2.85;;;;;;;;;;5050308;28;20477;-73
2022/05/08 18:13:19;;;;;;;8.75;2.75;;;;;;;;;;5050036;28;20231;-72
2022/05/08 18:16:25;;;;;;;6.53;2.75;;;;;;;;;;5038121;28;20045;-72
2022/05/08 18:19:30;;;;;;;7.93;3.13;;;;;;;;;;5050613;28;20045;-73
2022/05/08 18:22:35;;;;;;;8.35;3.83;;;;;;;;;;5052514;28;20141;-73
2022/05/08 18:25:39;;;;;;;8.10;2.70;;;;;;;;;;5052717;28;20036;-72
2022/05/08 18:28:43;;;;;;;7.93;3.03;;;;;;;;;;5053976;28;20033;-72
2022/05/08 18:31:48;;;;;;;12.88;4.72;;;;;;;;;;5053760;28;20049;-72
2022/05/08 18:34:53;;;;;;;11.02;5.05;;;;;;;;;;5053688;28;20056;-73
2022/05/08 18:37:57;;;;;;;6.95;3.70;;;;;;;;;;5052847;28;20055;-73
2022/05/08 18:41:01;;;;;;;6.25;3.03;;;;;;;;;;5053266;28;20037;-73
2022/05/08 18:44:05;;;;;;;6.38;3.03;;;;;;;;;;5053304;28;20033;-73
2022/05/08 18:47:09;;;;;;;9.40;4.65;;;;;;;;;;5053283;28;20053;-72
2022/05/08 18:50:14;;;;;;;8.48;5.50;;;;;;;;;;5053370;28;20037;-72
2022/05/08 18:53:20;;;;;;;15.93;5.53;;;;;;;;;;5052099;28;20303;-72
2022/05/08 18:56:29;;;;;;;9.02;5.68;;;;;;;;;;5053013;28;20056;-72
2022/05/08 18:59:33;;;;;;;11.73;6.75;;;;;;;;;;5052386;28;20048;-72
2022/05/08 19:02:37;;;;;;;12.38;6.05;;;;;;;;;;5052833;28;20040;-72
2022/05/08 19:05:42;;;;;;;8.23;5.47;;;;;;;;;;5053045;28;20040;-73
2022/05/08 19:08:47;;;;;;;10.02;5.78;;;;;;;;;;5052036;28;20041;-73
2022/05/08 19:11:52;;;;;;;11.18;5.28;;;;;;;;;;5053037;28;20037;-72
2022/05/08 19:14:58;;;;;;;8.80;5.07;;;;;;;;;;5053083;28;20048;-72
2022/05/08 19:18:03;;;;;;;9.30;4.15;;;;;;;;;;5052161;28;20037;-74
2022/05/08 19:21:07;;;;;;;14.63;3.97;;;;;;;;;;5052987;28;20040;-73